sensor_id;sensor_type;location;lat;lon;timestamp;pressure;altitude;pressure_sealevel;temperature;humidity
22753;BME280;11543;43.144;24.684;2023-08-31T00:01:30;98132.22;;;24.78;63.89
22753;BME280;11543;43.144;24.684;2023-08-31T00:03:56;98128.41;;;24.80;63.76
22753;BME280;11543;43.144;24.684;2023-08-31T00:06:21;98133.94;;;24.90;63.15
22753;BME280;11543;43.144;24.684;2023-08-31T00:08:47;98136.69;;;24.90;62.84
22753;BME280;11543;43.144;24.684;2023-08-31T00:11:13;98133.88;;;24.80;62.77
22753;BME280;11543;43.144;24.684;2023-08-31T00:13:40;98131.41;;;24.78;62.88
22753;BME280;11543;43.144;24.684;2023-08-31T00:16:05;98113.53;;;24.70;63.07
22753;BME280;11543;43.144;24.684;2023-08-31T00:18:31;98118.44;;;24.68;63.29
22753;BME280;11543;43.144;24.684;2023-08-31T00:20:57;98117.34;;;24.69;63.22
22753;BME280;11543;43.144;24.684;2023-08-31T00:23:23;98115.19;;;24.71;63.11
22753;BME280;11543;43.144;24.684;2023-08-31T00:25:48;98099.78;;;24.65;63.05
22753;BME280;11543;43.144;24.684;2023-08-31T00:28:15;98117.41;;;24.74;62.92
22753;BME280;11543;43.144;24.684;2023-08-31T00:30:43;98108.03;;;24.70;62.65
22753;BME280;11543;43.144;24.684;2023-08-31T00:33:13;98110.78;;;24.70;62.35
22753;BME280;11543;43.144;24.684;2023-08-31T00:35:38;98120.16;;;24.80;61.95
22753;BME280;11543;43.144;24.684;2023-08-31T00:38:07;98108.56;;;24.67;61.86
22753;BME280;11543;43.144;24.684;2023-08-31T00:40:33;98120.66;;;24.71;62.10
22753;BME280;11543;43.144;24.684;2023-08-31T00:43:03;98129.47;;;24.73;61.73
22753;BME280;11543;43.144;24.684;2023-08-31T00:45:28;98133.78;;;24.64;62.07
22753;BME280;11543;43.144;24.684;2023-08-31T00:47:54;98102.34;;;24.40;62.27
22753;BME280;11543;43.144;24.684;2023-08-31T00:50:19;98123.75;;;24.43;62.53
22753;BME280;11543;43.144;24.684;2023-08-31T00:52:45;98127.28;;;24.38;62.92
22753;BME280;11543;43.144;24.684;2023-08-31T00:55:11;98126.41;;;24.33;63.17
22753;BME280;11543;43.144;24.684;2023-08-31T00:57:36;98120.19;;;24.21;63.47
22753;BME280;11543;43.144;24.684;2023-08-31T01:00:03;98127.19;;;24.06;64.03
22753;BME280;11543;43.144;24.684;2023-08-31T01:05:23;98149.59;;;23.98;65.11
22753;BME280;11543;43.144;24.684;2023-08-31T01:08:31;98147.47;;;24.05;64.71
22753;BME280;11543;43.144;24.684;2023-08-31T01:11:09;98132.69;;;24.06;64.50
22753;BME280;11543;43.144;24.684;2023-08-31T01:13:40;98141.41;;;24.03;64.77
22753;BME280;11543;43.144;24.684;2023-08-31T01:16:07;98143.38;;;24.08;64.36
22753;BME280;11543;43.144;24.684;2023-08-31T01:18:34;98154.91;;;24.10;64.59
22753;BME280;11543;43.144;24.684;2023-08-31T01:21:11;98147.78;;;24.09;64.34
22753;BME280;11543;43.144;24.684;2023-08-31T01:23:55;98144.81;;;24.15;63.96
22753;BME280;11543;43.144;24.684;2023-08-31T01:26:22;98157.75;;;24.20;63.76
22753;BME280;11543;43.144;24.684;2023-08-31T01:28:48;98146.53;;;24.22;63.61
22753;BME280;11543;43.144;24.684;2023-08-31T01:31:14;98141.81;;;24.17;63.21
22753;BME280;11543;43.144;24.684;2023-08-31T01:33:43;98137.16;;;24.18;63.38
22753;BME280;11543;43.144;24.684;2023-08-31T01:36:17;98142.97;;;24.21;62.86
22753;BME280;11543;43.144;24.684;2023-08-31T01:38:46;98137.75;;;24.20;62.77
22753;BME280;11543;43.144;24.684;2023-08-31T01:41:16;98126.41;;;24.11;62.99
22753;BME280;11543;43.144;24.684;2023-08-31T01:43:43;98148.56;;;24.04;63.48
22753;BME280;11543;43.144;24.684;2023-08-31T01:46:10;98142.75;;;23.74;63.83
22753;BME280;11543;43.144;24.684;2023-08-31T01:48:42;98139.84;;;23.59;65.19
22753;BME280;11543;43.144;24.684;2023-08-31T01:51:09;98154.06;;;23.56;65.24
22753;BME280;11543;43.144;24.684;2023-08-31T01:53:34;98148.94;;;23.42;65.68
22753;BME280;11543;43.144;24.684;2023-08-31T01:56:00;98141.81;;;23.25;65.67
22753;BME280;11543;43.144;24.684;2023-08-31T01:58:26;98153.53;;;23.20;65.86
22753;BME280;11543;43.144;24.684;2023-08-31T02:00:51;98135.13;;;22.94;66.19
22753;BME280;11543;43.144;24.684;2023-08-31T02:03:17;98152.09;;;22.96;66.76
22753;BME280;11543;43.144;24.684;2023-08-31T02:05:42;98158.72;;;23.00;66.98
22753;BME280;11543;43.144;24.684;2023-08-31T02:08:08;98151.75;;;23.09;66.76
22753;BME280;11543;43.144;24.684;2023-08-31T02:10:33;98144.19;;;23.16;66.00
22753;BME280;11543;43.144;24.684;2023-08-31T02:12:59;98143.75;;;23.24;65.76
22753;BME280;11543;43.144;24.684;2023-08-31T02:15:25;98128.47;;;23.28;65.52
22753;BME280;11543;43.144;24.684;2023-08-31T02:17:51;98149.50;;;23.44;65.29
22753;BME280;11543;43.144;24.684;2023-08-31T02:20:16;98133.50;;;23.36;65.32
22753;BME280;11543;43.144;24.684;2023-08-31T02:22:42;98134.06;;;23.38;65.18
22753;BME280;11543;43.144;24.684;2023-08-31T02:25:08;98139.69;;;23.48;65.23
22753;BME280;11543;43.144;24.684;2023-08-31T02:27:33;98125.13;;;23.43;65.08
22753;BME280;11543;43.144;24.684;2023-08-31T02:29:59;98126.78;;;23.44;65.19
22753;BME280;11543;43.144;24.684;2023-08-31T02:32:24;98136.38;;;23.46;64.98
22753;BME280;11543;43.144;24.684;2023-08-31T02:34:50;98138.03;;;23.47;64.94
22753;BME280;11543;43.144;24.684;2023-08-31T02:37:15;98145.50;;;23.52;64.81
22753;BME280;11543;43.144;24.684;2023-08-31T02:39:41;98128.00;;;23.36;65.00
22753;BME280;11543;43.144;24.684;2023-08-31T02:42:07;98145.09;;;23.43;64.86
22753;BME280;11543;43.144;24.684;2023-08-31T02:44:33;98151.56;;;23.37;64.86
22753;BME280;11543;43.144;24.684;2023-08-31T02:46:58;98151.31;;;23.17;65.54
22753;BME280;11543;43.144;24.684;2023-08-31T02:49:24;98159.13;;;23.08;65.83
22753;BME280;11543;43.144;24.684;2023-08-31T02:51:50;98138.19;;;22.97;65.88
22753;BME280;11543;43.144;24.684;2023-08-31T02:54:15;98152.28;;;22.89;65.92
22753;BME280;11543;43.144;24.684;2023-08-31T02:56:41;98161.47;;;23.00;65.95
22753;BME280;11543;43.144;24.684;2023-08-31T02:59:07;98150.44;;;22.95;65.38
22753;BME280;11543;43.144;24.684;2023-08-31T03:01:33;98143.97;;;23.01;65.25
22753;BME280;11543;43.144;24.684;2023-08-31T03:03:58;98156.72;;;23.12;64.84
22753;BME280;11543;43.144;24.684;2023-08-31T03:06:25;98137.56;;;23.12;64.55
22753;BME280;11543;43.144;24.684;2023-08-31T03:08:50;98134.88;;;23.17;64.45
22753;BME280;11543;43.144;24.684;2023-08-31T03:11:16;98148.19;;;23.30;64.38
22753;BME280;11543;43.144;24.684;2023-08-31T03:13:41;98139.78;;;23.15;64.58
22753;BME280;11543;43.144;24.684;2023-08-31T03:16:07;98142.63;;;23.03;64.83
22753;BME280;11543;43.144;24.684;2023-08-31T03:18:33;98147.34;;;23.08;64.98
22753;BME280;11543;43.144;24.684;2023-08-31T03:20:58;98149.81;;;22.87;64.89
22753;BME280;11543;43.144;24.684;2023-08-31T03:23:25;98172.50;;;22.88;64.96
22753;BME280;11543;43.144;24.684;2023-08-31T03:25:50;98160.22;;;22.74;65.37
22753;BME280;11543;43.144;24.684;2023-08-31T03:28:16;98169.34;;;22.79;65.40
22753;BME280;11543;43.144;24.684;2023-08-31T03:30:42;98164.88;;;22.73;65.27
22753;BME280;11543;43.144;24.684;2023-08-31T03:33:10;98164.03;;;22.73;65.32
22753;BME280;11543;43.144;24.684;2023-08-31T03:35:36;98168.88;;;22.82;65.08
22753;BME280;11543;43.144;24.684;2023-08-31T03:38:02;98170.03;;;22.86;64.58
22753;BME280;11543;43.144;24.684;2023-08-31T03:40:27;98165.72;;;22.91;64.31
22753;BME280;11543;43.144;24.684;2023-08-31T03:42:53;98189.97;;;23.04;64.15
22753;BME280;11543;43.144;24.684;2023-08-31T03:45:19;98191.38;;;23.06;64.23
22753;BME280;11543;43.144;24.684;2023-08-31T03:47:45;98195.59;;;23.14;63.87
22753;BME280;11543;43.144;24.684;2023-08-31T03:50:10;98176.28;;;23.04;64.11
22753;BME280;11543;43.144;24.684;2023-08-31T03:52:36;98191.84;;;23.20;64.03
22753;BME280;11543;43.144;24.684;2023-08-31T03:55:02;98199.63;;;23.28;63.89
22753;BME280;11543;43.144;24.684;2023-08-31T03:57:27;98191.09;;;23.25;64.07
22753;BME280;11543;43.144;24.684;2023-08-31T03:59:53;98178.66;;;23.17;63.89
22753;BME280;11543;43.144;24.684;2023-08-31T04:02:18;98201.47;;;23.23;63.97
22753;BME280;11543;43.144;24.684;2023-08-31T04:04:44;98195.03;;;23.12;64.41
22753;BME280;11543;43.144;24.684;2023-08-31T04:07:09;98207.44;;;23.19;64.34
22753;BME280;11543;43.144;24.684;2023-08-31T04:09:35;98202.78;;;23.20;63.96
22753;BME280;11543;43.144;24.684;2023-08-31T04:12:00;98221.59;;;23.33;63.87
22753;BME280;11543;43.144;24.684;2023-08-31T04:14:26;98215.88;;;23.35;63.79
22753;BME280;11543;43.144;24.684;2023-08-31T04:16:54;98224.50;;;23.43;63.54
22753;BME280;11543;43.144;24.684;2023-08-31T04:19:19;98217.63;;;23.41;63.73
22753;BME280;11543;43.144;24.684;2023-08-31T04:21:45;98220.69;;;23.44;63.40
22753;BME280;11543;43.144;24.684;2023-08-31T04:24:10;98232.28;;;23.51;63.19
22753;BME280;11543;43.144;24.684;2023-08-31T04:26:36;98215.22;;;23.44;63.23
22753;BME280;11543;43.144;24.684;2023-08-31T04:29:03;98234.59;;;23.60;63.41
22753;BME280;11543;43.144;24.684;2023-08-31T04:31:31;98245.50;;;23.55;63.50
22753;BME280;11543;43.144;24.684;2023-08-31T04:33:57;98229.53;;;23.51;64.07
22753;BME280;11543;43.144;24.684;2023-08-31T04:36:22;98238.44;;;23.59;63.79
22753;BME280;11543;43.144;24.684;2023-08-31T04:38:51;98248.38;;;23.65;64.19
22753;BME280;11543;43.144;24.684;2023-08-31T04:41:18;98254.41;;;23.67;63.91
22753;BME280;11543;43.144;24.684;2023-08-31T04:43:44;98255.00;;;23.69;64.38
22753;BME280;11543;43.144;24.684;2023-08-31T04:46:09;98246.72;;;23.64;64.40
22753;BME280;11543;43.144;24.684;2023-08-31T04:48:35;98261.94;;;23.76;64.48
22753;BME280;11543;43.144;24.684;2023-08-31T04:51:01;98272.06;;;23.76;64.76
22753;BME280;11543;43.144;24.684;2023-08-31T04:53:29;98278.75;;;23.85;64.80
22753;BME280;11543;43.144;24.684;2023-08-31T04:55:55;98273.28;;;23.85;64.66
22753;BME280;11543;43.144;24.684;2023-08-31T04:58:21;98267.75;;;23.80;64.84
22753;BME280;11543;43.144;24.684;2023-08-31T05:00:47;98273.97;;;23.75;64.74
22753;BME280;11543;43.144;24.684;2023-08-31T05:03:14;98290.28;;;23.87;64.84
22753;BME280;11543;43.144;24.684;2023-08-31T05:05:39;98292.78;;;23.89;64.69
22753;BME280;11543;43.144;24.684;2023-08-31T05:08:07;98283.84;;;23.98;64.10
22753;BME280;11543;43.144;24.684;2023-08-31T05:10:35;98298.69;;;24.02;63.83
22753;BME280;11543;43.144;24.684;2023-08-31T05:13:01;98295.44;;;24.05;63.90
22753;BME280;11543;43.144;24.684;2023-08-31T05:15:29;98309.22;;;24.10;64.23
22753;BME280;11543;43.144;24.684;2023-08-31T05:17:55;98321.91;;;24.17;64.30
22753;BME280;11543;43.144;24.684;2023-08-31T05:20:21;98319.16;;;24.17;64.49
22753;BME280;11543;43.144;24.684;2023-08-31T05:22:50;98310.63;;;24.13;64.34
22753;BME280;11543;43.144;24.684;2023-08-31T05:25:16;98327.06;;;24.30;64.03
22753;BME280;11543;43.144;24.684;2023-08-31T05:27:41;98314.44;;;24.29;63.83
22753;BME280;11543;43.144;24.684;2023-08-31T05:30:07;98311.75;;;24.34;63.75
22753;BME280;11543;43.144;24.684;2023-08-31T05:32:33;98322.81;;;24.44;63.68
22753;BME280;11543;43.144;24.684;2023-08-31T05:34:58;98319.00;;;24.45;63.19
22753;BME280;11543;43.144;24.684;2023-08-31T05:37:26;98327.84;;;24.52;63.08
22753;BME280;11543;43.144;24.684;2023-08-31T05:39:51;98323.50;;;24.56;62.43
22753;BME280;11543;43.144;24.684;2023-08-31T05:42:17;98325.22;;;24.62;62.10
22753;BME280;11543;43.144;24.684;2023-08-31T05:44:43;98323.03;;;24.64;61.69
22753;BME280;11543;43.144;24.684;2023-08-31T05:47:09;98325.84;;;24.69;61.20
22753;BME280;11543;43.144;24.684;2023-08-31T05:49:34;98326.47;;;24.76;61.18
22753;BME280;11543;43.144;24.684;2023-08-31T05:52:00;98333.59;;;24.77;61.56
22753;BME280;11543;43.144;24.684;2023-08-31T05:54:27;98329.81;;;24.84;61.73
22753;BME280;11543;43.144;24.684;2023-08-31T05:56:52;98348.50;;;24.87;61.67
22753;BME280;11543;43.144;24.684;2023-08-31T05:59:19;98349.94;;;24.94;61.37
22753;BME280;11543;43.144;24.684;2023-08-31T06:01:46;98358.84;;;25.01;61.17
22753;BME280;11543;43.144;24.684;2023-08-31T06:04:12;98344.47;;;24.94;61.39
22753;BME280;11543;43.144;24.684;2023-08-31T06:06:39;98342.63;;;25.00;60.62
22753;BME280;11543;43.144;24.684;2023-08-31T06:09:05;98347.63;;;25.08;59.78
22753;BME280;11543;43.144;24.684;2023-08-31T06:11:32;98364.97;;;25.14;59.36
22753;BME280;11543;43.144;24.684;2023-08-31T06:13:58;98346.56;;;25.09;58.39
22753;BME280;11543;43.144;24.684;2023-08-31T06:16:23;98358.22;;;25.21;58.37
22753;BME280;11543;43.144;24.684;2023-08-31T06:18:49;98349.97;;;25.21;58.16
22753;BME280;11543;43.144;24.684;2023-08-31T06:21:14;98361.03;;;25.31;58.17
22753;BME280;11543;43.144;24.684;2023-08-31T06:23:40;98366.31;;;25.38;57.42
22753;BME280;11543;43.144;24.684;2023-08-31T06:26:05;98364.41;;;25.38;55.98
22753;BME280;11543;43.144;24.684;2023-08-31T06:28:31;98369.31;;;25.36;55.25
22753;BME280;11543;43.144;24.684;2023-08-31T06:30:56;98369.31;;;25.36;54.59
22753;BME280;11543;43.144;24.684;2023-08-31T06:33:24;98370.47;;;25.40;53.59
22753;BME280;11543;43.144;24.684;2023-08-31T06:35:50;98358.34;;;25.36;53.05
22753;BME280;11543;43.144;24.684;2023-08-31T06:38:17;98378.75;;;25.46;52.37
22753;BME280;11543;43.144;24.684;2023-08-31T06:40:43;98355.63;;;25.42;52.28
22753;BME280;11543;43.144;24.684;2023-08-31T06:43:09;98383.25;;;25.62;51.94
22753;BME280;11543;43.144;24.684;2023-08-31T06:45:34;98381.91;;;25.64;51.43
22753;BME280;11543;43.144;24.684;2023-08-31T06:48:00;98374.44;;;25.60;50.19
22753;BME280;11543;43.144;24.684;2023-08-31T06:50:26;98372.91;;;25.69;50.07
22753;BME280;11543;43.144;24.684;2023-08-31T06:52:52;98383.44;;;25.82;49.90
22753;BME280;11543;43.144;24.684;2023-08-31T06:55:17;98385.69;;;25.95;49.46
22753;BME280;11543;43.144;24.684;2023-08-31T06:57:43;98378.56;;;25.94;48.94
22753;BME280;11543;43.144;24.684;2023-08-31T07:00:09;98394.63;;;26.13;48.50
22753;BME280;11543;43.144;24.684;2023-08-31T07:02:39;98401.59;;;26.30;46.92
22753;BME280;11543;43.144;24.684;2023-08-31T07:05:05;98388.34;;;26.22;47.60
22753;BME280;11543;43.144;24.684;2023-08-31T07:07:31;98403.03;;;26.38;46.98
22753;BME280;11543;43.144;24.684;2023-08-31T07:09:57;98383.75;;;26.33;47.17
22753;BME280;11543;43.144;24.684;2023-08-31T07:12:22;98387.91;;;26.36;46.28
22753;BME280;11543;43.144;24.684;2023-08-31T07:14:48;98408.03;;;26.51;46.40
22753;BME280;11543;43.144;24.684;2023-08-31T07:17:17;98416.31;;;26.56;46.40
22753;BME280;11543;43.144;24.684;2023-08-31T07:19:43;98397.06;;;26.56;46.78
22753;BME280;11543;43.144;24.684;2023-08-31T07:22:09;98399.28;;;26.64;46.34
22753;BME280;11543;43.144;24.684;2023-08-31T07:24:37;98406.22;;;26.87;46.24
22753;BME280;11543;43.144;24.684;2023-08-31T07:27:03;98405.78;;;27.01;45.43
22753;BME280;11543;43.144;24.684;2023-08-31T07:29:29;98405.53;;;27.12;45.42
22753;BME280;11543;43.144;24.684;2023-08-31T07:31:55;98395.06;;;27.19;44.88
22753;BME280;11543;43.144;24.684;2023-08-31T07:34:20;98400.03;;;27.27;45.59
22753;BME280;11543;43.144;24.684;2023-08-31T07:36:46;98401.13;;;27.37;45.06
22753;BME280;11543;43.144;24.684;2023-08-31T07:39:12;98405.28;;;27.54;44.29
22753;BME280;11543;43.144;24.684;2023-08-31T07:41:37;98395.66;;;27.62;43.05
22753;BME280;11543;43.144;24.684;2023-08-31T07:44:03;98416.06;;;27.81;43.27
22753;BME280;11543;43.144;24.684;2023-08-31T07:46:29;98404.22;;;27.81;44.37
22753;BME280;11543;43.144;24.684;2023-08-31T07:48:54;98394.53;;;27.88;43.99
22753;BME280;11543;43.144;24.684;2023-08-31T07:51:21;98395.63;;;28.03;43.71
22753;BME280;11543;43.144;24.684;2023-08-31T07:53:49;98398.34;;;28.18;43.99
22753;BME280;11543;43.144;24.684;2023-08-31T07:56:14;98399.44;;;28.32;43.43
22753;BME280;11543;43.144;24.684;2023-08-31T07:58:40;98415.66;;;28.49;42.78
22753;BME280;11543;43.144;24.684;2023-08-31T08:01:05;98395.19;;;28.55;43.10
22753;BME280;11543;43.144;24.684;2023-08-31T08:03:31;98412.28;;;28.67;42.35
22753;BME280;11543;43.144;24.684;2023-08-31T08:05:56;98411.66;;;28.80;41.82
22753;BME280;11543;43.144;24.684;2023-08-31T08:08:22;98402.00;;;28.88;42.05
22753;BME280;11543;43.144;24.684;2023-08-31T08:10:52;98405.78;;;29.02;41.72
22753;BME280;11543;43.144;24.684;2023-08-31T08:13:17;98415.56;;;29.24;41.82
22753;BME280;11543;43.144;24.684;2023-08-31T08:15:45;98399.50;;;29.31;41.51
22753;BME280;11543;43.144;24.684;2023-08-31T08:18:10;98399.97;;;29.48;40.49
22753;BME280;11543;43.144;24.684;2023-08-31T08:20:36;98418.28;;;29.73;40.09
22753;BME280;11543;43.144;24.684;2023-08-31T08:23:06;98417.66;;;29.81;39.52
22753;BME280;11543;43.144;24.684;2023-08-31T08:25:32;98414.44;;;29.98;38.37
22753;BME280;11543;43.144;24.684;2023-08-31T08:27:58;98395.13;;;29.93;38.79
22753;BME280;11543;43.144;24.684;2023-08-31T08:30:23;98410.31;;;29.95;38.33
22753;BME280;11543;43.144;24.684;2023-08-31T08:32:49;98403.06;;;30.04;38.31
22753;BME280;11543;43.144;24.684;2023-08-31T08:35:14;98408.25;;;30.11;37.66
22753;BME280;11543;43.144;24.684;2023-08-31T08:37:40;98405.97;;;30.18;36.96
22753;BME280;11543;43.144;24.684;2023-08-31T08:40:09;98407.56;;;30.24;36.99
22753;BME280;11543;43.144;24.684;2023-08-31T08:42:40;98392.13;;;30.18;37.38
22753;BME280;11543;43.144;24.684;2023-08-31T08:45:10;98415.19;;;30.37;37.06
22753;BME280;11543;43.144;24.684;2023-08-31T08:47:42;98405.34;;;30.50;36.38
22753;BME280;11543;43.144;24.684;2023-08-31T08:50:09;98403.94;;;30.53;36.80
22753;BME280;11543;43.144;24.684;2023-08-31T08:52:35;98420.22;;;30.59;36.53
22753;BME280;11543;43.144;24.684;2023-08-31T08:55:01;98406.53;;;30.68;35.92
22753;BME280;11543;43.144;24.684;2023-08-31T08:57:28;98398.41;;;30.77;36.98
22753;BME280;11543;43.144;24.684;2023-08-31T08:59:57;98413.53;;;31.03;36.67
22753;BME280;11543;43.144;24.684;2023-08-31T09:02:23;98407.84;;;31.13;36.05
22753;BME280;11543;43.144;24.684;2023-08-31T09:04:49;98405.19;;;31.27;35.79
22753;BME280;11543;43.144;24.684;2023-08-31T09:07:22;98394.63;;;31.29;34.81
22753;BME280;11543;43.144;24.684;2023-08-31T09:09:53;98406.22;;;31.50;34.22
22753;BME280;11543;43.144;24.684;2023-08-31T09:12:22;98405.22;;;31.59;34.29
22753;BME280;11543;43.144;24.684;2023-08-31T09:15:04;98409.63;;;31.79;34.37
22753;BME280;11543;43.144;24.684;2023-08-31T09:17:42;98391.56;;;31.82;33.54
22753;BME280;11543;43.144;24.684;2023-08-31T09:20:12;98396.09;;;31.91;33.63
22753;BME280;11543;43.144;24.684;2023-08-31T09:22:42;98396.31;;;31.95;33.78
22753;BME280;11543;43.144;24.684;2023-08-31T09:25:10;98404.97;;;32.07;33.44
22753;BME280;11543;43.144;24.684;2023-08-31T09:27:38;98395.53;;;32.08;33.14
22753;BME280;11543;43.144;24.684;2023-08-31T09:30:08;98391.03;;;32.12;33.34
22753;BME280;11543;43.144;24.684;2023-08-31T09:32:34;98395.56;;;32.22;33.33
22753;BME280;11543;43.144;24.684;2023-08-31T09:35:00;98387.72;;;32.10;32.34
22753;BME280;11543;43.144;24.684;2023-08-31T09:37:29;98383.72;;;32.16;32.74
22753;BME280;11543;43.144;24.684;2023-08-31T09:39:54;98382.94;;;32.29;32.40
22753;BME280;11543;43.144;24.684;2023-08-31T09:42:20;98374.81;;;32.33;31.56
22753;BME280;11543;43.144;24.684;2023-08-31T09:44:49;98393.00;;;32.39;32.07
22753;BME280;11543;43.144;24.684;2023-08-31T09:47:17;98380.16;;;32.29;32.45
22753;BME280;11543;43.144;24.684;2023-08-31T09:49:43;98387.56;;;32.48;32.18
22753;BME280;11543;43.144;24.684;2023-08-31T09:52:10;98388.66;;;32.74;31.70
22753;BME280;11543;43.144;24.684;2023-08-31T09:54:37;98370.03;;;32.88;31.76
22753;BME280;11543;43.144;24.684;2023-08-31T09:57:04;98369.41;;;33.05;31.47
22753;BME280;11543;43.144;24.684;2023-08-31T09:59:30;98381.53;;;33.09;31.09
22753;BME280;11543;43.144;24.684;2023-08-31T10:01:56;98385.66;;;33.12;31.38
22753;BME280;11543;43.144;24.684;2023-08-31T10:04:23;98388.00;;;33.18;31.60
22753;BME280;11543;43.144;24.684;2023-08-31T10:06:49;98374.78;;;33.24;31.65
22753;BME280;11543;43.144;24.684;2023-08-31T10:09:15;98382.75;;;33.17;30.72
22753;BME280;11543;43.144;24.684;2023-08-31T10:11:41;98392.63;;;33.23;31.37
22753;BME280;11543;43.144;24.684;2023-08-31T10:14:10;98366.31;;;33.07;31.03
22753;BME280;11543;43.144;24.684;2023-08-31T10:16:39;98388.13;;;33.13;31.76
22753;BME280;11543;43.144;24.684;2023-08-31T10:19:04;98385.03;;;33.15;31.58
22753;BME280;11543;43.144;24.684;2023-08-31T10:21:30;98383.78;;;33.21;31.08
22753;BME280;11543;43.144;24.684;2023-08-31T10:23:56;98403.09;;;33.40;30.24
22753;BME280;11543;43.144;24.684;2023-08-31T10:26:28;98409.47;;;33.40;30.44
22753;BME280;11543;43.144;24.684;2023-08-31T10:28:54;98392.16;;;33.43;30.56
22753;BME280;11543;43.144;24.684;2023-08-31T10:31:21;98380.66;;;33.59;30.03
22753;BME280;11543;43.144;24.684;2023-08-31T10:34:00;98391.56;;;33.77;29.59
22753;BME280;11543;43.144;24.684;2023-08-31T10:36:45;98384.19;;;33.95;30.04
22753;BME280;11543;43.144;24.684;2023-08-31T10:39:15;98381.91;;;33.97;29.45
22753;BME280;11543;43.144;24.684;2023-08-31T10:41:42;98382.78;;;34.06;29.56
22753;BME280;11543;43.144;24.684;2023-08-31T10:46:49;98386.16;;;34.26;28.72
22753;BME280;11543;43.144;24.684;2023-08-31T10:49:18;98374.66;;;34.18;29.73
22753;BME280;11543;43.144;24.684;2023-08-31T10:51:46;98384.84;;;34.32;29.51
22753;BME280;11543;43.144;24.684;2023-08-31T10:54:13;98394.63;;;34.52;28.63
22753;BME280;11543;43.144;24.684;2023-08-31T10:59:23;98395.63;;;34.56;28.32
22753;BME280;11543;43.144;24.684;2023-08-31T11:02:02;98393.00;;;34.59;28.43
22753;BME280;11543;43.144;24.684;2023-08-31T11:04:29;98384.00;;;34.62;28.30
22753;BME280;11543;43.144;24.684;2023-08-31T11:07:15;98406.47;;;34.66;28.30
22753;BME280;11543;43.144;24.684;2023-08-31T11:09:41;98387.16;;;34.69;28.19
22753;BME280;11543;43.144;24.684;2023-08-31T11:12:11;98378.81;;;34.78;27.93
22753;BME280;11543;43.144;24.684;2023-08-31T11:14:36;98376.56;;;34.89;28.21
22753;BME280;11543;43.144;24.684;2023-08-31T11:17:03;98380.84;;;35.12;26.93
22753;BME280;11543;43.144;24.684;2023-08-31T11:19:31;98393.00;;;35.16;27.03
22753;BME280;11543;43.144;24.684;2023-08-31T11:21:57;98375.59;;;35.02;26.92
22753;BME280;11543;43.144;24.684;2023-08-31T11:24:23;98373.63;;;34.85;27.08
22753;BME280;11543;43.144;24.684;2023-08-31T11:26:53;98389.03;;;34.83;27.22
22753;BME280;11543;43.144;24.684;2023-08-31T11:29:18;98377.78;;;34.65;26.89
22753;BME280;11543;43.144;24.684;2023-08-31T11:31:44;98372.66;;;34.50;27.13
22753;BME280;11543;43.144;24.684;2023-08-31T11:34:14;98377.72;;;34.48;26.99
22753;BME280;11543;43.144;24.684;2023-08-31T11:36:41;98371.34;;;34.47;27.47
22753;BME280;11543;43.144;24.684;2023-08-31T11:39:09;98370.38;;;34.61;27.41
22753;BME280;11543;43.144;24.684;2023-08-31T11:41:36;98375.78;;;34.57;27.87
22753;BME280;11543;43.144;24.684;2023-08-31T11:44:10;98356.13;;;34.62;27.50
22753;BME280;11543;43.144;24.684;2023-08-31T11:46:37;98368.03;;;34.85;26.68
22753;BME280;11543;43.144;24.684;2023-08-31T11:49:04;98351.56;;;34.66;26.59
22753;BME280;11543;43.144;24.684;2023-08-31T11:51:32;98358.44;;;34.60;27.09
22753;BME280;11543;43.144;24.684;2023-08-31T11:53:59;98368.56;;;34.56;27.68
22753;BME280;11543;43.144;24.684;2023-08-31T11:56:27;98373.44;;;34.42;28.22
22753;BME280;11543;43.144;24.684;2023-08-31T11:58:52;98356.56;;;34.38;28.06
22753;BME280;11543;43.144;24.684;2023-08-31T12:01:20;98356.44;;;34.52;27.83
22753;BME280;11543;43.144;24.684;2023-08-31T12:03:46;98363.19;;;34.60;27.89
22753;BME280;11543;43.144;24.684;2023-08-31T12:06:21;98370.94;;;34.71;27.50
22753;BME280;11543;43.144;24.684;2023-08-31T12:08:47;98374.72;;;34.75;27.52
22753;BME280;11543;43.144;24.684;2023-08-31T12:11:13;98360.13;;;34.78;27.39
22753;BME280;11543;43.144;24.684;2023-08-31T12:13:40;98364.44;;;35.02;26.58
22753;BME280;11543;43.144;24.684;2023-08-31T12:16:11;98352.63;;;35.05;26.89
22753;BME280;11543;43.144;24.684;2023-08-31T12:18:37;98357.56;;;35.25;27.44
22753;BME280;11543;43.144;24.684;2023-08-31T12:21:03;98348.06;;;35.61;27.08
22753;BME280;11543;43.144;24.684;2023-08-31T12:23:30;98356.03;;;35.97;25.98
22753;BME280;11543;43.144;24.684;2023-08-31T12:25:55;98347.75;;;36.09;25.86
22753;BME280;11543;43.144;24.684;2023-08-31T12:28:22;98349.19;;;36.24;25.82
22753;BME280;11543;43.144;24.684;2023-08-31T12:30:50;98362.22;;;36.58;25.18
22753;BME280;11543;43.144;24.684;2023-08-31T12:33:16;98345.72;;;36.65;24.66
22753;BME280;11543;43.144;24.684;2023-08-31T12:35:43;98356.41;;;36.63;24.29
22753;BME280;11543;43.144;24.684;2023-08-31T12:38:08;98336.81;;;36.42;24.79
22753;BME280;11543;43.144;24.684;2023-08-31T12:40:34;98349.47;;;36.40;24.46
22753;BME280;11543;43.144;24.684;2023-08-31T12:43:00;98341.00;;;36.19;24.91
22753;BME280;11543;43.144;24.684;2023-08-31T12:45:25;98343.56;;;35.77;24.68
22753;BME280;11543;43.144;24.684;2023-08-31T12:47:51;98335.91;;;35.39;25.55
22753;BME280;11543;43.144;24.684;2023-08-31T12:50:17;98349.69;;;35.27;25.85
22753;BME280;11543;43.144;24.684;2023-08-31T12:52:43;98357.41;;;35.04;26.20
22753;BME280;11543;43.144;24.684;2023-08-31T12:55:12;98344.72;;;34.72;26.34
22753;BME280;11543;43.144;24.684;2023-08-31T12:57:38;98339.38;;;34.45;26.71